sensor_id;sensor_type;location;lat;lon;timestamp;P1;durP1;ratioP1;P2;durP2;ratioP2
2157;SDS011;41972;48.774;9.282;2022-12-07T00:01:11;26.00;;;24.33;;
2157;SDS011;41972;48.774;9.282;2022-12-07T00:03:39;26.97;;;25.33;;
2157;SDS011;41972;48.774;9.282;2022-12-07T00:06:06;43.80;;;41.80;;
2157;SDS011;41972;48.774;9.282;2022-12-07T00:08:34;38.27;;;36.20;;
2157;SDS011;41972;48.774;9.282;2022-12-07T00:11:04;28.40;;;26.80;;
2157;SDS011;41972;48.774;9.282;2022-12-07T00:13:37;61.30;;;58.70;;
2157;SDS011;41972;48.774;9.282;2022-12-07T00:16:08;32.27;;;30.67;;
2157;SDS011;41972;48.774;9.282;2022-12-07T00:18:36;33.70;;;32.07;;
2157;SDS011;41972;48.774;9.282;2022-12-07T00:21:03;31.87;;;30.17;;
2157;SDS011;41972;48.774;9.282;2022-12-07T00:23:38;34.93;;;32.97;;
2157;SDS011;41972;48.774;9.282;2022-12-07T00:26:05;69.43;;;66.53;;
2157;SDS011;41972;48.774;9.282;2022-12-07T00:28:32;54.87;;;52.37;;
2157;SDS011;41972;48.774;9.282;2022-12-07T00:31:11;62.67;;;60.03;;
2157;SDS011;41972;48.774;9.282;2022-12-07T00:33:38;34.40;;;32.30;;
2157;SDS011;41972;48.774;9.282;2022-12-07T00:36:04;47.40;;;45.10;;
2157;SDS011;41972;48.774;9.282;2022-12-07T00:38:32;32.73;;;30.83;;
2157;SDS011;41972;48.774;9.282;2022-12-07T00:41:00;42.87;;;40.70;;
2157;SDS011;41972;48.774;9.282;2022-12-07T00:43:27;28.20;;;26.63;;
2157;SDS011;41972;48.774;9.282;2022-12-07T00:45:55;32.17;;;30.30;;
2157;SDS011;41972;48.774;9.282;2022-12-07T00:48:21;33.27;;;31.43;;
2157;SDS011;41972;48.774;9.282;2022-12-07T00:50:48;37.03;;;35.03;;
2157;SDS011;41972;48.774;9.282;2022-12-07T00:53:14;23.63;;;21.93;;
2157;SDS011;41972;48.774;9.282;2022-12-07T00:55:40;18.27;;;16.97;;
2157;SDS011;41972;48.774;9.282;2022-12-07T00:58:07;23.63;;;21.90;;
2157;SDS011;41972;48.774;9.282;2022-12-07T01:00:33;21.33;;;20.03;;
2157;SDS011;41972;48.774;9.282;2022-12-07T01:03:02;21.47;;;20.07;;
2157;SDS011;41972;48.774;9.282;2022-12-07T01:05:28;26.87;;;25.17;;
2157;SDS011;41972;48.774;9.282;2022-12-07T01:07:54;29.70;;;27.90;;
2157;SDS011;41972;48.774;9.282;2022-12-07T01:10:19;26.93;;;25.17;;
2157;SDS011;41972;48.774;9.282;2022-12-07T01:12:45;21.93;;;20.43;;
2157;SDS011;41972;48.774;9.282;2022-12-07T01:15:11;37.60;;;35.60;;
2157;SDS011;41972;48.774;9.282;2022-12-07T01:17:36;23.37;;;21.87;;
2157;SDS011;41972;48.774;9.282;2022-12-07T01:20:02;21.57;;;20.00;;
2157;SDS011;41972;48.774;9.282;2022-12-07T01:22:29;24.27;;;22.67;;
2157;SDS011;41972;48.774;9.282;2022-12-07T01:24:54;20.97;;;19.47;;
2157;SDS011;41972;48.774;9.282;2022-12-07T01:27:20;35.83;;;33.90;;
2157;SDS011;41972;48.774;9.282;2022-12-07T01:29:46;24.20;;;22.57;;
2157;SDS011;41972;48.774;9.282;2022-12-07T01:32:11;19.40;;;18.00;;
2157;SDS011;41972;48.774;9.282;2022-12-07T01:34:37;34.17;;;32.37;;
2157;SDS011;41972;48.774;9.282;2022-12-07T01:37:03;36.67;;;34.57;;
2157;SDS011;41972;48.774;9.282;2022-12-07T01:39:29;27.77;;;26.13;;
2157;SDS011;41972;48.774;9.282;2022-12-07T01:41:54;24.27;;;22.70;;
2157;SDS011;41972;48.774;9.282;2022-12-07T01:44:27;28.33;;;26.30;;
2157;SDS011;41972;48.774;9.282;2022-12-07T01:47:01;25.90;;;24.07;;
2157;SDS011;41972;48.774;9.282;2022-12-07T01:49:31;24.97;;;22.97;;
2157;SDS011;41972;48.774;9.282;2022-12-07T01:52:06;26.90;;;25.20;;
2157;SDS011;41972;48.774;9.282;2022-12-07T01:54:35;26.50;;;24.67;;
2157;SDS011;41972;48.774;9.282;2022-12-07T01:57:01;29.60;;;27.70;;
2157;SDS011;41972;48.774;9.282;2022-12-07T01:59:28;39.60;;;37.50;;
2157;SDS011;41972;48.774;9.282;2022-12-07T02:01:54;30.23;;;28.30;;
2157;SDS011;41972;48.774;9.282;2022-12-07T02:04:22;23.70;;;22.00;;
2157;SDS011;41972;48.774;9.282;2022-12-07T02:06:48;28.60;;;26.90;;
2157;SDS011;41972;48.774;9.282;2022-12-07T02:09:15;27.93;;;26.13;;
2157;SDS011;41972;48.774;9.282;2022-12-07T02:11:41;38.50;;;36.13;;
2157;SDS011;41972;48.774;9.282;2022-12-07T02:14:06;32.80;;;30.80;;
2157;SDS011;41972;48.774;9.282;2022-12-07T02:16:42;26.83;;;25.13;;
2157;SDS011;41972;48.774;9.282;2022-12-07T02:28:33;26.70;;;25.00;;
2157;SDS011;41972;48.774;9.282;2022-12-07T02:31:13;30.90;;;29.00;;
2157;SDS011;41972;48.774;9.282;2022-12-07T02:33:45;27.67;;;25.90;;
2157;SDS011;41972;48.774;9.282;2022-12-07T02:36:34;21.90;;;20.50;;
2157;SDS011;41972;48.774;9.282;2022-12-07T02:39:09;26.23;;;24.40;;
2157;SDS011;41972;48.774;9.282;2022-12-07T02:41:49;33.80;;;31.90;;
2157;SDS011;41972;48.774;9.282;2022-12-07T02:44:20;31.53;;;29.63;;
2157;SDS011;41972;48.774;9.282;2022-12-07T02:46:57;19.93;;;18.43;;
2157;SDS011;41972;48.774;9.282;2022-12-07T02:49:29;20.50;;;19.00;;
2157;SDS011;41972;48.774;9.282;2022-12-07T02:51:55;22.27;;;20.63;;
2157;SDS011;41972;48.774;9.282;2022-12-07T02:54:21;27.80;;;26.10;;
2157;SDS011;41972;48.774;9.282;2022-12-07T02:56:52;25.47;;;23.73;;
2157;SDS011;41972;48.774;9.282;2022-12-07T02:59:55;19.00;;;17.60;;
2157;SDS011;41972;48.774;9.282;2022-12-07T03:11:20;30.03;;;28.07;;
2157;SDS011;41972;48.774;9.282;2022-12-07T03:16:25;32.30;;;30.37;;
2157;SDS011;41972;48.774;9.282;2022-12-07T03:19:00;36.23;;;34.23;;
2157;SDS011;41972;48.774;9.282;2022-12-07T03:21:35;21.03;;;19.40;;
2157;SDS011;41972;48.774;9.282;2022-12-07T03:24:06;41.43;;;39.03;;
2157;SDS011;41972;48.774;9.282;2022-12-07T03:26:38;36.13;;;33.73;;
2157;SDS011;41972;48.774;9.282;2022-12-07T03:29:12;58.83;;;55.93;;
2157;SDS011;41972;48.774;9.282;2022-12-07T03:31:55;46.80;;;44.30;;
2157;SDS011;41972;48.774;9.282;2022-12-07T03:34:28;45.13;;;42.67;;
2157;SDS011;41972;48.774;9.282;2022-12-07T03:37:03;35.37;;;33.37;;
2157;SDS011;41972;48.774;9.282;2022-12-07T03:39:37;42.47;;;40.03;;
2157;SDS011;41972;48.774;9.282;2022-12-07T03:42:16;34.43;;;32.33;;
2157;SDS011;41972;48.774;9.282;2022-12-07T03:44:41;33.50;;;31.53;;
2157;SDS011;41972;48.774;9.282;2022-12-07T03:47:12;38.50;;;36.33;;
2157;SDS011;41972;48.774;9.282;2022-12-07T03:50:06;29.47;;;27.57;;
2157;SDS011;41972;48.774;9.282;2022-12-07T03:52:42;24.03;;;22.27;;
2157;SDS011;41972;48.774;9.282;2022-12-07T03:55:32;26.67;;;24.80;;
2157;SDS011;41972;48.774;9.282;2022-12-07T03:58:02;28.13;;;26.23;;
2157;SDS011;41972;48.774;9.282;2022-12-07T04:00:32;26.73;;;24.77;;
2157;SDS011;41972;48.774;9.282;2022-12-07T04:02:58;31.13;;;29.10;;
2157;SDS011;41972;48.774;9.282;2022-12-07T04:05:24;31.50;;;29.50;;
2157;SDS011;41972;48.774;9.282;2022-12-07T04:07:50;36.47;;;34.30;;
2157;SDS011;41972;48.774;9.282;2022-12-07T04:10:15;35.90;;;33.67;;
2157;SDS011;41972;48.774;9.282;2022-12-07T04:12:41;33.90;;;31.60;;
2157;SDS011;41972;48.774;9.282;2022-12-07T04:15:07;30.93;;;29.03;;
2157;SDS011;41972;48.774;9.282;2022-12-07T04:17:33;25.87;;;23.90;;
2157;SDS011;41972;48.774;9.282;2022-12-07T04:19:59;29.60;;;27.80;;
2157;SDS011;41972;48.774;9.282;2022-12-07T04:22:24;26.47;;;24.47;;
2157;SDS011;41972;48.774;9.282;2022-12-07T04:24:50;40.20;;;38.07;;
2157;SDS011;41972;48.774;9.282;2022-12-07T04:27:15;36.20;;;34.20;;
2157;SDS011;41972;48.774;9.282;2022-12-07T04:29:41;34.00;;;31.93;;
2157;SDS011;41972;48.774;9.282;2022-12-07T04:32:06;26.60;;;24.63;;
2157;SDS011;41972;48.774;9.282;2022-12-07T04:34:32;26.80;;;24.70;;
2157;SDS011;41972;48.774;9.282;2022-12-07T04:36:57;32.67;;;30.57;;
2157;SDS011;41972;48.774;9.282;2022-12-07T04:39:24;29.50;;;27.60;;
2157;SDS011;41972;48.774;9.282;2022-12-07T04:41:53;25.57;;;23.57;;
2157;SDS011;41972;48.774;9.282;2022-12-07T04:44:18;28.73;;;26.73;;
2157;SDS011;41972;48.774;9.282;2022-12-07T04:46:45;37.00;;;34.70;;
2157;SDS011;41972;48.774;9.282;2022-12-07T04:49:11;36.20;;;33.73;;
2157;SDS011;41972;48.774;9.282;2022-12-07T04:51:38;32.27;;;29.77;;
2157;SDS011;41972;48.774;9.282;2022-12-07T04:54:04;29.80;;;27.40;;
2157;SDS011;41972;48.774;9.282;2022-12-07T04:56:29;37.17;;;34.53;;
2157;SDS011;41972;48.774;9.282;2022-12-07T04:58:55;32.77;;;30.20;;
2157;SDS011;41972;48.774;9.282;2022-12-07T05:01:21;25.47;;;23.27;;
2157;SDS011;41972;48.774;9.282;2022-12-07T05:03:49;27.43;;;25.17;;
2157;SDS011;41972;48.774;9.282;2022-12-07T05:06:15;31.73;;;29.00;;
2157;SDS011;41972;48.774;9.282;2022-12-07T05:08:42;24.20;;;22.10;;
2157;SDS011;41972;48.774;9.282;2022-12-07T05:11:09;26.37;;;24.03;;
2157;SDS011;41972;48.774;9.282;2022-12-07T05:13:55;35.70;;;33.33;;
2157;SDS011;41972;48.774;9.282;2022-12-07T05:16:21;81.83;;;78.13;;
2157;SDS011;41972;48.774;9.282;2022-12-07T05:18:46;63.30;;;60.20;;
2157;SDS011;41972;48.774;9.282;2022-12-07T05:21:12;42.40;;;39.80;;
2157;SDS011;41972;48.774;9.282;2022-12-07T05:23:37;32.43;;;30.13;;
2157;SDS011;41972;48.774;9.282;2022-12-07T05:26:03;34.50;;;32.10;;
2157;SDS011;41972;48.774;9.282;2022-12-07T05:28:29;24.23;;;22.47;;
2157;SDS011;41972;48.774;9.282;2022-12-07T05:30:54;30.97;;;28.77;;
2157;SDS011;41972;48.774;9.282;2022-12-07T05:33:20;28.00;;;25.80;;
2157;SDS011;41972;48.774;9.282;2022-12-07T05:35:45;24.77;;;22.77;;
2157;SDS011;41972;48.774;9.282;2022-12-07T05:38:11;28.63;;;26.70;;
2157;SDS011;41972;48.774;9.282;2022-12-07T05:40:36;27.00;;;25.10;;
2157;SDS011;41972;48.774;9.282;2022-12-07T05:43:02;24.37;;;22.57;;
2157;SDS011;41972;48.774;9.282;2022-12-07T05:45:29;22.53;;;20.80;;
2157;SDS011;41972;48.774;9.282;2022-12-07T05:47:54;23.20;;;21.50;;
2157;SDS011;41972;48.774;9.282;2022-12-07T05:50:20;25.27;;;23.30;;
2157;SDS011;41972;48.774;9.282;2022-12-07T05:52:45;37.33;;;34.83;;
2157;SDS011;41972;48.774;9.282;2022-12-07T05:55:11;24.43;;;22.53;;
2157;SDS011;41972;48.774;9.282;2022-12-07T05:57:36;26.70;;;24.80;;
2157;SDS011;41972;48.774;9.282;2022-12-07T06:00:03;25.33;;;23.47;;
2157;SDS011;41972;48.774;9.282;2022-12-07T06:02:29;27.83;;;25.77;;
2157;SDS011;41972;48.774;9.282;2022-12-07T06:04:55;27.73;;;25.63;;
2157;SDS011;41972;48.774;9.282;2022-12-07T06:07:20;28.40;;;26.20;;
2157;SDS011;41972;48.774;9.282;2022-12-07T06:09:46;24.30;;;22.10;;
2157;SDS011;41972;48.774;9.282;2022-12-07T06:12:12;24.23;;;22.03;;
2157;SDS011;41972;48.774;9.282;2022-12-07T06:14:56;30.23;;;27.70;;
2157;SDS011;41972;48.774;9.282;2022-12-07T06:17:22;27.10;;;24.80;;
2157;SDS011;41972;48.774;9.282;2022-12-07T06:19:48;31.80;;;29.30;;
2157;SDS011;41972;48.774;9.282;2022-12-07T06:22:13;23.97;;;21.90;;
2157;SDS011;41972;48.774;9.282;2022-12-07T06:24:41;29.03;;;26.83;;
2157;SDS011;41972;48.774;9.282;2022-12-07T06:27:07;41.10;;;38.60;;
2157;SDS011;41972;48.774;9.282;2022-12-07T06:29:33;28.23;;;26.13;;
2157;SDS011;41972;48.774;9.282;2022-12-07T06:31:58;28.13;;;26.03;;
2157;SDS011;41972;48.774;9.282;2022-12-07T06:34:24;27.97;;;25.97;;
2157;SDS011;41972;48.774;9.282;2022-12-07T06:36:50;22.73;;;20.83;;
2157;SDS011;41972;48.774;9.282;2022-12-07T06:39:18;25.73;;;23.73;;
2157;SDS011;41972;48.774;9.282;2022-12-07T06:41:45;30.27;;;28.10;;
2157;SDS011;41972;48.774;9.282;2022-12-07T06:44:11;28.80;;;26.70;;
2157;SDS011;41972;48.774;9.282;2022-12-07T06:46:36;21.63;;;19.77;;
2157;SDS011;41972;48.774;9.282;2022-12-07T06:49:02;20.83;;;18.93;;
2157;SDS011;41972;48.774;9.282;2022-12-07T06:51:29;25.87;;;24.03;;
2157;SDS011;41972;48.774;9.282;2022-12-07T06:53:55;19.53;;;17.77;;
2157;SDS011;41972;48.774;9.282;2022-12-07T06:56:21;22.13;;;20.43;;
2157;SDS011;41972;48.774;9.282;2022-12-07T06:58:47;20.77;;;19.17;;
2157;SDS011;41972;48.774;9.282;2022-12-07T07:01:14;29.83;;;28.03;;
2157;SDS011;41972;48.774;9.282;2022-12-07T07:03:41;19.40;;;17.80;;
2157;SDS011;41972;48.774;9.282;2022-12-07T07:06:07;22.60;;;20.97;;
2157;SDS011;41972;48.774;9.282;2022-12-07T07:08:36;20.30;;;18.70;;
2157;SDS011;41972;48.774;9.282;2022-12-07T07:11:02;30.90;;;29.00;;
2157;SDS011;41972;48.774;9.282;2022-12-07T07:13:28;39.13;;;36.80;;
2157;SDS011;41972;48.774;9.282;2022-12-07T07:15:54;40.30;;;37.93;;
2157;SDS011;41972;48.774;9.282;2022-12-07T07:18:19;29.13;;;27.20;;
2157;SDS011;41972;48.774;9.282;2022-12-07T07:20:45;31.87;;;29.93;;
2157;SDS011;41972;48.774;9.282;2022-12-07T07:23:11;29.70;;;27.83;;
2157;SDS011;41972;48.774;9.282;2022-12-07T07:25:37;42.30;;;39.93;;
2157;SDS011;41972;48.774;9.282;2022-12-07T07:28:03;41.60;;;39.27;;
2157;SDS011;41972;48.774;9.282;2022-12-07T07:30:29;22.67;;;20.43;;
2157;SDS011;41972;48.774;9.282;2022-12-07T07:32:58;21.77;;;20.07;;
2157;SDS011;41972;48.774;9.282;2022-12-07T07:35:25;19.47;;;17.50;;
2157;SDS011;41972;48.774;9.282;2022-12-07T07:37:51;24.17;;;22.37;;
2157;SDS011;41972;48.774;9.282;2022-12-07T07:40:17;32.47;;;30.37;;
2157;SDS011;41972;48.774;9.282;2022-12-07T07:42:42;29.47;;;27.27;;
2157;SDS011;41972;48.774;9.282;2022-12-07T07:45:08;29.37;;;27.40;;
2157;SDS011;41972;48.774;9.282;2022-12-07T07:47:34;19.67;;;18.27;;
2157;SDS011;41972;48.774;9.282;2022-12-07T07:50:00;21.47;;;19.77;;
2157;SDS011;41972;48.774;9.282;2022-12-07T07:52:26;24.00;;;22.23;;
2157;SDS011;41972;48.774;9.282;2022-12-07T07:54:51;26.77;;;25.00;;
2157;SDS011;41972;48.774;9.282;2022-12-07T07:57:17;29.13;;;27.30;;
2157;SDS011;41972;48.774;9.282;2022-12-07T07:59:42;41.40;;;39.33;;
2157;SDS011;41972;48.774;9.282;2022-12-07T08:02:15;23.93;;;22.03;;
2157;SDS011;41972;48.774;9.282;2022-12-07T08:04:42;16.73;;;15.33;;
2157;SDS011;41972;48.774;9.282;2022-12-07T08:07:08;17.40;;;16.10;;
2157;SDS011;41972;48.774;9.282;2022-12-07T08:09:34;20.60;;;19.20;;
2157;SDS011;41972;48.774;9.282;2022-12-07T08:11:59;21.30;;;19.90;;
2157;SDS011;41972;48.774;9.282;2022-12-07T08:14:25;15.63;;;14.43;;
2157;SDS011;41972;48.774;9.282;2022-12-07T08:16:52;14.63;;;13.47;;
2157;SDS011;41972;48.774;9.282;2022-12-07T08:19:18;14.57;;;13.37;;
2157;SDS011;41972;48.774;9.282;2022-12-07T08:21:43;14.10;;;12.97;;
2157;SDS011;41972;48.774;9.282;2022-12-07T08:24:09;15.23;;;14.13;;
2157;SDS011;41972;48.774;9.282;2022-12-07T08:26:34;16.63;;;15.30;;
2157;SDS011;41972;48.774;9.282;2022-12-07T08:29:00;16.83;;;15.43;;
2157;SDS011;41972;48.774;9.282;2022-12-07T08:31:25;16.07;;;14.87;;
2157;SDS011;41972;48.774;9.282;2022-12-07T08:33:53;18.47;;;17.17;;
2157;SDS011;41972;48.774;9.282;2022-12-07T08:36:19;21.67;;;20.07;;
2157;SDS011;41972;48.774;9.282;2022-12-07T08:38:45;18.77;;;17.27;;
2157;SDS011;41972;48.774;9.282;2022-12-07T08:41:10;14.60;;;13.40;;
2157;SDS011;41972;48.774;9.282;2022-12-07T08:43:36;27.87;;;26.27;;
2157;SDS011;41972;48.774;9.282;2022-12-07T08:49:01;23.77;;;22.37;;
2157;SDS011;41972;48.774;9.282;2022-12-07T08:51:29;14.03;;;13.03;;
2157;SDS011;41972;48.774;9.282;2022-12-07T08:53:55;28.80;;;27.17;;
2157;SDS011;41972;48.774;9.282;2022-12-07T08:56:24;27.80;;;26.10;;
2157;SDS011;41972;48.774;9.282;2022-12-07T08:58:50;26.53;;;25.03;;
2157;SDS011;41972;48.774;9.282;2022-12-07T09:01:16;28.23;;;26.33;;
2157;SDS011;41972;48.774;9.282;2022-12-07T09:03:42;26.10;;;24.53;;
2157;SDS011;41972;48.774;9.282;2022-12-07T09:06:08;28.57;;;27.07;;
2157;SDS011;41972;48.774;9.282;2022-12-07T09:08:35;36.40;;;34.53;;
2157;SDS011;41972;48.774;9.282;2022-12-07T09:11:03;33.63;;;31.83;;
2157;SDS011;41972;48.774;9.282;2022-12-07T09:13:29;37.20;;;35.43;;
2157;SDS011;41972;48.774;9.282;2022-12-07T09:15:55;26.77;;;25.40;;
2157;SDS011;41972;48.774;9.282;2022-12-07T09:18:21;31.63;;;30.03;;
2157;SDS011;41972;48.774;9.282;2022-12-07T09:20:46;29.97;;;28.47;;
2157;SDS011;41972;48.774;9.282;2022-12-07T09:23:12;24.23;;;22.80;;
2157;SDS011;41972;48.774;9.282;2022-12-07T09:25:37;77.10;;;74.07;;
2157;SDS011;41972;48.774;9.282;2022-12-07T09:28:03;16.47;;;15.07;;
2157;SDS011;41972;48.774;9.282;2022-12-07T09:30:28;18.60;;;17.40;;
2157;SDS011;41972;48.774;9.282;2022-12-07T09:32:55;23.73;;;22.13;;
2157;SDS011;41972;48.774;9.282;2022-12-07T09:35:21;28.50;;;27.07;;
2157;SDS011;41972;48.774;9.282;2022-12-07T09:37:47;18.13;;;16.90;;
2157;SDS011;41972;48.774;9.282;2022-12-07T09:40:13;19.87;;;18.53;;
2157;SDS011;41972;48.774;9.282;2022-12-07T09:42:41;19.50;;;18.20;;
2157;SDS011;41972;48.774;9.282;2022-12-07T09:45:19;22.57;;;21.23;;
2157;SDS011;41972;48.774;9.282;2022-12-07T09:47:46;17.93;;;16.83;;
2157;SDS011;41972;48.774;9.282;2022-12-07T09:50:13;17.63;;;16.37;;
2157;SDS011;41972;48.774;9.282;2022-12-07T09:52:42;17.10;;;15.90;;
2157;SDS011;41972;48.774;9.282;2022-12-07T09:55:14;14.50;;;13.50;;
2157;SDS011;41972;48.774;9.282;2022-12-07T09:57:41;14.00;;;13.03;;
2157;SDS011;41972;48.774;9.282;2022-12-07T10:00:13;29.33;;;27.87;;
2157;SDS011;41972;48.774;9.282;2022-12-07T10:02:43;27.27;;;25.87;;
2157;SDS011;41972;48.774;9.282;2022-12-07T10:05:16;19.60;;;18.50;;
2157;SDS011;41972;48.774;9.282;2022-12-07T10:07:44;13.37;;;12.47;;
2157;SDS011;41972;48.774;9.282;2022-12-07T10:10:14;12.10;;;11.30;;
2157;SDS011;41972;48.774;9.282;2022-12-07T10:21:17;13.30;;;12.30;;
2157;SDS011;41972;48.774;9.282;2022-12-07T10:29:16;11.60;;;10.80;;
2157;SDS011;41972;48.774;9.282;2022-12-07T10:32:03;26.67;;;25.30;;
2157;SDS011;41972;48.774;9.282;2022-12-07T10:34:30;13.87;;;12.87;;
2157;SDS011;41972;48.774;9.282;2022-12-07T10:39:42;11.00;;;10.20;;
2157;SDS011;41972;48.774;9.282;2022-12-07T10:42:22;10.80;;;10.10;;
2157;SDS011;41972;48.774;9.282;2022-12-07T10:45:09;10.67;;;9.87;;
2157;SDS011;41972;48.774;9.282;2022-12-07T10:53:00;9.77;;;9.07;;
2157;SDS011;41972;48.774;9.282;2022-12-07T10:58:37;9.37;;;8.77;;
2157;SDS011;41972;48.774;9.282;2022-12-07T11:01:13;23.57;;;22.33;;
2157;SDS011;41972;48.774;9.282;2022-12-07T11:09:27;11.67;;;10.97;;
2157;SDS011;41972;48.774;9.282;2022-12-07T11:12:25;8.73;;;8.00;;
2157;SDS011;41972;48.774;9.282;2022-12-07T11:15:13;9.57;;;8.70;;
2157;SDS011;41972;48.774;9.282;2022-12-07T11:20:53;17.43;;;16.43;;
2157;SDS011;41972;48.774;9.282;2022-12-07T11:29:30;16.03;;;15.13;;
2157;SDS011;41972;48.774;9.282;2022-12-07T11:37:40;13.53;;;12.83;;
2157;SDS011;41972;48.774;9.282;2022-12-07T11:40:20;14.37;;;13.53;;
2157;SDS011;41972;48.774;9.282;2022-12-07T11:43:04;17.30;;;16.43;;
2157;SDS011;41972;48.774;9.282;2022-12-07T11:46:05;13.87;;;13.07;;
2157;SDS011;41972;48.774;9.282;2022-12-07T11:48:38;14.23;;;13.47;;
2157;SDS011;41972;48.774;9.282;2022-12-07T11:51:17;14.37;;;13.47;;
2157;SDS011;41972;48.774;9.282;2022-12-07T11:53:49;15.97;;;14.97;;
2157;SDS011;41972;48.774;9.282;2022-12-07T11:56:21;18.27;;;17.37;;
2157;SDS011;41972;48.774;9.282;2022-12-07T11:59:11;19.27;;;18.07;;
2157;SDS011;41972;48.774;9.282;2022-12-07T12:01:56;17.30;;;16.30;;
2157;SDS011;41972;48.774;9.282;2022-12-07T12:04:31;11.77;;;10.97;;
2157;SDS011;41972;48.774;9.282;2022-12-07T12:07:10;23.10;;;22.00;;
2157;SDS011;41972;48.774;9.282;2022-12-07T12:09:48;14.90;;;14.07;;
2157;SDS011;41972;48.774;9.282;2022-12-07T12:12:29;16.70;;;15.80;;
2157;SDS011;41972;48.774;9.282;2022-12-07T12:23:00;46.67;;;44.77;;
2157;SDS011;41972;48.774;9.282;2022-12-07T12:25:36;11.93;;;11.03;;
2157;SDS011;41972;48.774;9.282;2022-12-07T12:28:10;12.27;;;11.27;;
2157;SDS011;41972;48.774;9.282;2022-12-07T12:33:32;13.90;;;12.57;;
2157;SDS011;41972;48.774;9.282;2022-12-07T12:38:50;16.87;;;15.73;;
2157;SDS011;41972;48.774;9.282;2022-12-07T12:54:29;17.50;;;16.50;;
2157;SDS011;41972;48.774;9.282;2022-12-07T13:02:24;27.17;;;25.80;;
2157;SDS011;41972;48.774;9.282;2022-12-07T13:10:25;21.60;;;20.33;;
2157;SDS011;41972;48.774;9.282;2022-12-07T13:21:02;41.20;;;39.47;;
2157;SDS011;41972;48.774;9.282;2022-12-07T13:23:35;60.00;;;57.67;;
2157;SDS011;41972;48.774;9.282;2022-12-07T13:28:45;79.00;;;75.77;;
2157;SDS011;41972;48.774;9.282;2022-12-07T13:31:16;37.07;;;35.40;;
2157;SDS011;41972;48.774;9.282;2022-12-07T13:33:44;40.30;;;38.50;;
2157;SDS011;41972;48.774;9.282;2022-12-07T13:36:24;22.70;;;21.50;;
2157;SDS011;41972;48.774;9.282;2022-12-07T13:38:56;15.10;;;14.10;;
2157;SDS011;41972;48.774;9.282;2022-12-07T13:41:24;12.47;;;11.57;;
2157;SDS011;41972;48.774;9.282;2022-12-07T13:46:59;13.33;;;12.43;;
2157;SDS011;41972;48.774;9.282;2022-12-07T13:49:44;13.10;;;12.20;;
2157;SDS011;41972;48.774;9.282;2022-12-07T13:52:14;16.53;;;15.43;;
2157;SDS011;41972;48.774;9.282;2022-12-07T13:54:57;12.77;;;11.73;;
2157;SDS011;41972;48.774;9.282;2022-12-07T13:57:29;10.47;;;9.73;;
2157;SDS011;41972;48.774;9.282;2022-12-07T13:59:56;13.20;;;12.30;;
2157;SDS011;41972;48.774;9.282;2022-12-07T14:04:50;41.10;;;39.30;;
2157;SDS011;41972;48.774;9.282;2022-12-07T14:10:01;35.57;;;34.07;;
2157;SDS011;41972;48.774;9.282;2022-12-07T14:12:31;29.00;;;27.67;;
2157;SDS011;41972;48.774;9.282;2022-12-07T14:15:00;27.97;;;26.57;;
2157;SDS011;41972;48.774;9.282;2022-12-07T14:17:27;20.53;;;19.37;;
2157;SDS011;41972;48.774;9.282;2022-12-07T14:19:54;33.93;;;32.27;;
2157;SDS011;41972;48.774;9.282;2022-12-07T14:22:31;21.20;;;19.90;;
2157;SDS011;41972;48.774;9.282;2022-12-07T14:27:38;21.40;;;19.90;;
2157;SDS011;41972;48.774;9.282;2022-12-07T14:30:14;24.10;;;22.90;;
2157;SDS011;41972;48.774;9.282;2022-12-07T14:32:42;27.40;;;26.00;;
2157;SDS011;41972;48.774;9.282;2022-12-07T14:35:15;16.20;;;15.20;;
2157;SDS011;41972;48.774;9.282;2022-12-07T14:37:43;22.73;;;21.43;;
2157;SDS011;41972;48.774;9.282;2022-12-07T14:40:13;21.07;;;19.70;;
2157;SDS011;41972;48.774;9.282;2022-12-07T14:42:44;13.17;;;12.00;;
2157;SDS011;41972;48.774;9.282;2022-12-07T14:45:19;12.67;;;11.77;;
2157;SDS011;41972;48.774;9.282;2022-12-07T14:47:46;14.17;;;13.17;;
2157;SDS011;41972;48.774;9.282;2022-12-07T14:50:16;13.23;;;12.23;;
2157;SDS011;41972;48.774;9.282;2022-12-07T14:52:43;11.43;;;10.63;;
2157;SDS011;41972;48.774;9.282;2022-12-07T14:55:33;20.47;;;19.17;;
2157;SDS011;41972;48.774;9.282;2022-12-07T14:57:59;32.30;;;30.80;;
2157;SDS011;41972;48.774;9.282;2022-12-07T15:00:25;25.90;;;24.53;;
2157;SDS011;41972;48.774;9.282;2022-12-07T15:02:52;28.50;;;27.10;;
2157;SDS011;41972;48.774;9.282;2022-12-07T15:05:19;22.37;;;21.03;;
2157;SDS011;41972;48.774;9.282;2022-12-07T15:07:45;22.97;;;21.63;;
2157;SDS011;41972;48.774;9.282;2022-12-07T15:10:18;13.30;;;12.20;;
2157;SDS011;41972;48.774;9.282;2022-12-07T15:12:54;14.80;;;13.60;;
2157;SDS011;41972;48.774;9.282;2022-12-07T15:15:19;16.07;;;14.87;;
2157;SDS011;41972;48.774;9.282;2022-12-07T15:17:45;17.10;;;15.80;;
2157;SDS011;41972;48.774;9.282;2022-12-07T15:20:11;18.80;;;17.50;;
2157;SDS011;41972;48.774;9.282;2022-12-07T15:22:39;18.53;;;16.97;;
2157;SDS011;41972;48.774;9.282;2022-12-07T15:25:05;15.17;;;14.07;;
2157;SDS011;41972;48.774;9.282;2022-12-07T15:27:31;16.40;;;15.10;;
2157;SDS011;41972;48.774;9.282;2022-12-07T15:29:56;16.77;;;15.47;;
2157;SDS011;41972;48.774;9.282;2022-12-07T15:32:22;15.87;;;14.30;;
2157;SDS011;41972;48.774;9.282;2022-12-07T15:34:48;18.53;;;17.33;;
2157;SDS011;41972;48.774;9.282;2022-12-07T15:37:14;17.60;;;16.40;;
2157;SDS011;41972;48.774;9.282;2022-12-07T15:39:40;15.87;;;14.67;;
2157;SDS011;41972;48.774;9.282;2022-12-07T15:42:06;16.17;;;14.53;;
2157;SDS011;41972;48.774;9.282;2022-12-07T15:44:32;13.97;;;12.77;;
2157;SDS011;41972;48.774;9.282;2022-12-07T15:47:16;14.70;;;13.40;;
2157;SDS011;41972;48.774;9.282;2022-12-07T15:49:45;22.40;;;20.80;;
2157;SDS011;41972;48.774;9.282;2022-12-07T15:52:11;20.97;;;19.60;;
2157;SDS011;41972;48.774;9.282;2022-12-07T15:54:36;23.00;;;21.30;;
2157;SDS011;41972;48.774;9.282;2022-12-07T15:57:02;28.37;;;26.67;;
2157;SDS011;41972;48.774;9.282;2022-12-07T15:59:28;23.47;;;21.97;;
2157;SDS011;41972;48.774;9.282;2022-12-07T16:01:54;21.27;;;19.80;;
2157;SDS011;41972;48.774;9.282;2022-12-07T16:04:20;22.87;;;21.30;;
2157;SDS011;41972;48.774;9.282;2022-12-07T16:06:45;24.63;;;23.03;;
2157;SDS011;41972;48.774;9.282;2022-12-07T16:09:11;19.93;;;18.33;;
2157;SDS011;41972;48.774;9.282;2022-12-07T16:11:37;14.77;;;13.57;;
2157;SDS011;41972;48.774;9.282;2022-12-07T16:14:02;16.77;;;15.57;;
2157;SDS011;41972;48.774;9.282;2022-12-07T16:16:28;15.70;;;14.30;;
2157;SDS011;41972;48.774;9.282;2022-12-07T16:18:54;15.90;;;14.70;;
2157;SDS011;41972;48.774;9.282;2022-12-07T16:21:19;17.10;;;15.80;;
2157;SDS011;41972;48.774;9.282;2022-12-07T16:23:45;14.73;;;13.70;;
2157;SDS011;41972;48.774;9.282;2022-12-07T16:26:13;14.73;;;13.63;;
2157;SDS011;41972;48.774;9.282;2022-12-07T16:28:40;13.77;;;12.67;;
2157;SDS011;41972;48.774;9.282;2022-12-07T16:31:07;13.00;;;12.00;;
2157;SDS011;41972;48.774;9.282;2022-12-07T16:33:35;15.30;;;14.30;;
2157;SDS011;41972;48.774;9.282;2022-12-07T16:36:03;12.50;;;11.60;;
2157;SDS011;41972;48.774;9.282;2022-12-07T16:38:29;12.90;;;11.90;;
2157;SDS011;41972;48.774;9.282;2022-12-07T16:40:55;32.57;;;30.77;;
2157;SDS011;41972;48.774;9.282;2022-12-07T16:43:21;12.63;;;11.33;;
2157;SDS011;41972;48.774;9.282;2022-12-07T16:45:46;13.70;;;12.50;;
2157;SDS011;41972;48.774;9.282;2022-12-07T16:48:16;13.00;;;11.80;;
2157;SDS011;41972;48.774;9.282;2022-12-07T16:50:42;14.50;;;13.30;;
2157;SDS011;41972;48.774;9.282;2022-12-07T16:53:11;14.70;;;13.47;;
2157;SDS011;41972;48.774;9.282;2022-12-07T16:55:38;15.70;;;14.50;;